createdAt,value
2018-08-25T00:00:44.363Z,98533.94
2018-08-25T00:03:12.816Z,98539.73
2018-08-25T00:05:41.193Z,98534.94
2018-08-25T00:08:09.511Z,98534.42
2018-08-25T00:10:37.975Z,98524.41
2018-08-25T00:13:06.330Z,98529.73
2018-08-25T00:15:34.664Z,98526.26
2018-08-25T00:18:03.606Z,98528.91
2018-08-25T00:20:31.947Z,98521.09
2018-08-25T00:23:00.290Z,98521.56
2018-08-25T00:25:28.633Z,98510.59
2018-08-25T00:27:56.971Z,98514.44
2018-08-25T00:30:30.510Z,98510.23
2018-08-25T00:32:58.850Z,98509.75
2018-08-25T00:35:27.169Z,98500.59
2018-08-25T00:37:55.527Z,98498.89
2018-08-25T00:40:23.838Z,98495.42
2018-08-25T00:42:52.188Z,98497.56
2018-08-25T00:45:20.587Z,98490.73
2018-08-25T00:47:49.069Z,98492.91
2018-08-25T00:50:17.336Z,98489.73
2018-08-25T00:52:45.670Z,98493.24
2018-08-25T00:55:14.075Z,98483.31
2018-08-25T00:57:42.581Z,98477.63
2018-08-25T01:00:10.926Z,98481.61
2018-08-25T01:02:39.227Z,98474.48
2018-08-25T01:05:07.973Z,98470.98
2018-08-25T01:07:36.403Z,98465.33
2018-08-25T01:10:04.866Z,98465.33
2018-08-25T01:12:33.306Z,98462.19
2018-08-25T01:15:01.671Z,98471.98
2018-08-25T01:17:30.079Z,98456.17
2018-08-25T01:19:58.467Z,98458.83
2018-08-25T01:22:37.934Z,98460.64
2018-08-25T01:25:06.984Z,98454.48
2018-08-25T01:27:35.546Z,98446.66
2018-08-25T01:30:04.234Z,98446.31
2018-08-25T01:32:32.590Z,98445.47
2018-08-25T01:35:00.919Z,98437.98
2018-08-25T01:37:29.251Z,98433.17
2018-08-25T01:39:57.590Z,98438.13
2018-08-25T01:42:25.930Z,98436.80
2018-08-25T01:44:57.084Z,98435.98
2018-08-25T01:47:25.406Z,98438.13
2018-08-25T01:50:00.455Z,98432.95
2018-08-25T01:52:29.045Z,98425.13
2018-08-25T01:54:57.378Z,98411.50
2018-08-25T01:57:25.702Z,98408.00
2018-08-25T01:59:54.028Z,98402.69
2018-08-25T02:02:22.388Z,98397.85
2018-08-25T02:04:50.776Z,98397.03
2018-08-25T02:07:19.307Z,98399.84
2018-08-25T02:09:47.718Z,98395.48
2018-08-25T02:12:16.046Z,98388.00
2018-08-25T02:14:44.329Z,98382.20
2018-08-25T02:17:12.622Z,98384.02
2018-08-25T02:19:40.994Z,98382.49
2018-08-25T02:22:40.130Z,98382.02
2018-08-25T02:25:08.444Z,98377.33
2018-08-25T02:27:36.740Z,98371.16
2018-08-25T02:30:05.196Z,98374.30
2018-08-25T02:32:33.510Z,98375.63
2018-08-25T02:35:01.865Z,98375.30
2018-08-25T02:37:30.218Z,98369.98
2018-08-25T02:39:58.540Z,98366.99
2018-08-25T02:42:26.934Z,98364.45
2018-08-25T02:44:55.235Z,98360.13
2018-08-25T02:47:23.565Z,98355.66
2018-08-25T02:49:51.986Z,98354.48
2018-08-25T02:52:20.304Z,98350.98
2018-08-25T02:54:48.626Z,98345.33
2018-08-25T02:57:16.952Z,98353.30
2018-08-25T02:59:45.310Z,98349.80
2018-08-25T03:02:13.666Z,98354.41
2018-08-25T03:04:42.330Z,98347.63
2018-08-25T03:07:10.937Z,98352.23
2018-08-25T03:09:39.262Z,98350.24
2018-08-25T03:12:07.655Z,98349.73
2018-08-25T03:14:36.070Z,98348.40
2018-08-25T03:17:04.434Z,98340.24
2018-08-25T03:19:32.787Z,98341.06
2018-08-25T03:22:01.121Z,98343.72
2018-08-25T03:24:29.502Z,98340.24
2018-08-25T03:26:57.922Z,98346.89
2018-08-25T03:29:26.266Z,98335.89
2018-08-25T03:31:54.587Z,98345.70
2018-08-25T03:34:22.990Z,98351.98
2018-08-25T03:36:51.290Z,98356.45
2018-08-25T03:39:19.595Z,98345.34
2018-08-25T03:41:47.932Z,98351.65
2018-08-25T03:44:16.243Z,98349.92
2018-08-25T03:46:44.808Z,98351.77
2018-08-25T03:49:13.103Z,98355.23
2018-08-25T03:51:41.403Z,98356.70
2018-08-25T03:54:09.718Z,98354.05
2018-08-25T03:56:38.024Z,98348.41
2018-08-25T03:59:06.526Z,98342.73
2018-08-25T04:01:34.889Z,98342.39
2018-08-25T04:04:03.160Z,98336.23
2018-08-25T04:06:31.507Z,98338.89
2018-08-25T04:08:59.851Z,98336.23
2018-08-25T04:11:28.196Z,98330.59
2018-08-25T04:13:56.474Z,98334.72
2018-08-25T04:16:24.778Z,98324.58
2018-08-25T04:18:53.090Z,98329.04
2018-08-25T04:21:21.425Z,98328.23
2018-08-25T04:23:49.739Z,98324.39
2018-08-25T04:26:18.090Z,98327.05
2018-08-25T04:28:46.378Z,98325.35
2018-08-25T04:31:14.704Z,98324.50
2018-08-25T04:33:42.999Z,98323.69
2018-08-25T04:36:11.335Z,98324.65
2018-08-25T04:38:39.683Z,98315.35
2018-08-25T04:41:07.998Z,98322.51
2018-08-25T04:43:36.347Z,98311.52
2018-08-25T04:46:04.678Z,98315.17
2018-08-25T04:48:32.992Z,98308.53
2018-08-25T04:51:01.295Z,98316.98
2018-08-25T04:53:29.662Z,98315.80
2018-08-25T04:55:58.033Z,98316.28
2018-08-25T04:58:26.406Z,98320.92
2018-08-25T05:00:54.726Z,98327.89
2018-08-25T05:03:23.067Z,98329.70
2018-08-25T05:05:51.367Z,98331.55
2018-08-25T05:08:20.384Z,98329.00
2018-08-25T05:10:48.702Z,98338.81
2018-08-25T05:13:17.112Z,98332.31
2018-08-25T05:15:45.472Z,98332.31
2018-08-25T05:18:13.805Z,98339.91
2018-08-25T05:20:42.095Z,98339.91
2018-08-25T05:23:10.416Z,98344.41
2018-08-25T05:25:38.734Z,98338.40
2018-08-25T05:28:07.052Z,98336.22
2018-08-25T05:30:35.389Z,98334.41
2018-08-25T05:33:03.799Z,98339.36
2018-08-25T05:35:32.126Z,98332.24
2018-08-25T05:38:00.431Z,98333.23
2018-08-25T05:40:28.860Z,98335.05
2018-08-25T05:42:57.247Z,98337.70
2018-08-25T05:45:25.583Z,98336.52
2018-08-25T05:47:53.911Z,98336.00
2018-08-25T05:50:22.672Z,98346.51
2018-08-25T05:52:50.971Z,98346.98
2018-08-25T05:55:19.502Z,98342.64
2018-08-25T05:57:47.947Z,98343.97
2018-08-25T06:00:16.194Z,98351.12
2018-08-25T06:02:44.558Z,98355.58
2018-08-25T06:05:12.916Z,98350.41
2018-08-25T06:07:41.353Z,98352.08
2018-08-25T06:10:09.487Z,98360.55
2018-08-25T06:12:37.831Z,98363.21
2018-08-25T06:15:06.263Z,98358.86
2018-08-25T06:17:34.738Z,98364.17
2018-08-25T06:23:02.160Z,98371.58
2018-08-25T06:25:30.446Z,98377.40
2018-08-25T06:27:58.883Z,98372.91
2018-08-25T06:30:27.171Z,98373.42
2018-08-25T06:32:55.518Z,98381.53
2018-08-25T06:35:23.865Z,98382.01
2018-08-25T06:37:52.297Z,98382.48
2018-08-25T06:40:20.626Z,98388.27
2018-08-25T06:42:49.059Z,98391.08
2018-08-25T06:45:17.407Z,98399.04
2018-08-25T06:47:45.759Z,98396.38
2018-08-25T06:50:14.111Z,98390.73
2018-08-25T06:52:42.474Z,98396.53
2018-08-25T06:55:10.838Z,98397.52
2018-08-25T06:57:39.174Z,98394.50
2018-08-25T07:00:07.803Z,98395.82
2018-08-25T07:02:36.158Z,98401.13
2018-08-25T07:05:04.591Z,98403.78
2018-08-25T07:07:32.898Z,98402.13
2018-08-25T07:10:01.247Z,98404.30
2018-08-25T07:12:29.626Z,98404.44
2018-08-25T07:14:58.610Z,98411.89
2018-08-25T07:17:26.986Z,98412.17
2018-08-25T07:19:55.291Z,98417.23
2018-08-25T07:22:23.641Z,98416.86
2018-08-25T07:24:51.918Z,98426.01
2018-08-25T07:27:20.187Z,98423.16
2018-08-25T07:29:48.485Z,98427.28
2018-08-25T07:32:16.799Z,98428.38
2018-08-25T07:34:45.055Z,98430.70
2018-08-25T07:37:13.367Z,98430.84
2018-08-25T07:39:41.638Z,98428.81
2018-08-25T07:42:09.956Z,98435.08
2018-08-25T07:44:38.333Z,98439.57
2018-08-25T07:47:06.634Z,98440.67
2018-08-25T07:49:34.929Z,98443.55
2018-08-25T07:52:03.190Z,98442.70
2018-08-25T07:54:31.526Z,98441.04
2018-08-25T07:56:59.792Z,98441.18
2018-08-25T07:59:28.106Z,98449.62
2018-08-25T08:01:56.371Z,98451.43
2018-08-25T08:04:24.674Z,98443.12
2018-08-25T08:06:53.030Z,98448.44
2018-08-25T08:09:21.359Z,98449.25
2018-08-25T08:11:49.696Z,98450.10
2018-08-25T08:14:18.030Z,98454.56
2018-08-25T08:16:46.338Z,98450.58
2018-08-25T08:19:14.650Z,98449.06
2018-08-25T08:21:42.955Z,98442.19
2018-08-25T08:24:11.238Z,98454.64
2018-08-25T08:26:40.186Z,98450.81
2018-08-25T08:29:08.495Z,98457.36
2018-08-25T08:31:36.762Z,98457.63
2018-08-25T08:34:05.041Z,98455.23
2018-08-25T08:36:33.842Z,98465.00
2018-08-25T08:39:02.110Z,98456.56
2018-08-25T08:41:30.408Z,98465.00
2018-08-25T08:43:58.846Z,98468.97
2018-08-25T08:46:32.472Z,98477.16
2018-08-25T08:49:00.798Z,98484.98
2018-08-25T08:51:29.110Z,98488.16
2018-08-25T08:53:57.439Z,98485.22
2018-08-25T08:56:25.772Z,98490.11
2018-08-25T08:58:54.029Z,98487.20
2018-08-25T09:01:22.283Z,98498.02
2018-08-25T09:03:50.598Z,98483.66
2018-08-25T09:06:18.938Z,98480.34
2018-08-25T09:08:47.219Z,98490.01
2018-08-25T09:11:15.576Z,98495.52
2018-08-25T09:13:44.092Z,98502.86
2018-08-25T09:16:12.423Z,98502.44
2018-08-25T09:18:40.738Z,98501.67
2018-08-25T09:21:10.122Z,98501.53
2018-08-25T09:23:38.430Z,98508.26
2018-08-25T09:26:06.863Z,98501.34
2018-08-25T09:28:35.126Z,98501.09
2018-08-25T09:31:03.419Z,98501.62
2018-08-25T09:33:31.770Z,98503.66
2018-08-25T09:36:00.174Z,98509.33
2018-08-25T09:38:28.394Z,98510.52
2018-08-25T09:40:56.682Z,98507.86
2018-08-25T09:43:24.990Z,98506.02
2018-08-25T09:45:53.314Z,98512.66
2018-08-25T09:48:21.631Z,98513.88
2018-08-25T09:50:49.923Z,98515.41
2018-08-25T09:53:18.291Z,98522.52
2018-08-25T09:55:46.675Z,98523.37
2018-08-25T09:58:14.935Z,98520.95
2018-08-25T10:00:43.270Z,98523.82
2018-08-25T10:03:11.542Z,98524.27
2018-08-25T10:05:39.814Z,98522.89
2018-08-25T10:08:08.454Z,98517.82
2018-08-25T10:10:36.734Z,98528.39
2018-08-25T10:13:05.041Z,98524.67
2018-08-25T10:15:33.322Z,98524.88
2018-08-25T10:18:01.622Z,98531.16
2018-08-25T10:20:29.999Z,98533.48
2018-08-25T10:22:58.336Z,98527.47
2018-08-25T10:25:26.574Z,98536.28
2018-08-25T10:27:54.835Z,98526.84
2018-08-25T10:30:23.167Z,98529.50
2018-08-25T10:32:51.423Z,98525.52
2018-08-25T10:35:19.738Z,98526.36
2018-08-25T10:37:48.010Z,98532.24
2018-08-25T10:40:16.290Z,98535.86
2018-08-25T10:42:44.583Z,98536.23
2018-08-25T10:45:12.862Z,98536.23
2018-08-25T10:47:41.501Z,98531.73
2018-08-25T10:50:09.786Z,98540.55
2018-08-25T10:52:38.241Z,98535.23
2018-08-25T10:55:06.582Z,98540.41
2018-08-25T10:57:34.906Z,98547.53
2018-08-25T11:00:03.358Z,98547.89
2018-08-25T11:02:31.598Z,98543.91
2018-08-25T11:04:59.914Z,98551.27
2018-08-25T11:07:28.190Z,98549.93
2018-08-25T11:09:56.452Z,98550.12
2018-08-25T11:12:24.755Z,98554.11
2018-08-25T11:14:53.073Z,98545.66
2018-08-25T11:17:21.498Z,98551.79
2018-08-25T11:19:50.192Z,98549.98
2018-08-25T11:22:18.490Z,98555.66
2018-08-25T11:24:46.762Z,98555.78
2018-08-25T11:27:15.193Z,98557.81
2018-08-25T11:29:43.519Z,98559.66
2018-08-25T11:32:11.925Z,98550.69
2018-08-25T11:34:40.286Z,98554.53
2018-08-25T11:37:08.709Z,98547.41
2018-08-25T11:39:37.059Z,98551.88
2018-08-25T11:42:05.479Z,98552.20
2018-08-25T11:44:33.747Z,98557.05
2018-08-25T11:47:06.183Z,98561.88
2018-08-25T11:49:34.471Z,98556.56
2018-08-25T11:52:02.790Z,98559.56
2018-08-25T11:54:31.088Z,98553.28
2018-08-25T11:56:59.482Z,98561.11
2018-08-25T11:59:27.746Z,98557.12
2018-08-25T12:01:56.122Z,98560.12
2018-08-25T12:04:24.403Z,98567.27
2018-08-25T12:06:52.696Z,98561.96
2018-08-25T12:09:20.971Z,98570.61
2018-08-25T12:11:49.261Z,98579.91
2018-08-25T12:14:17.690Z,98572.08
2018-08-25T12:16:45.966Z,98580.91
2018-08-25T12:19:14.230Z,98573.78
2018-08-25T12:21:42.518Z,98573.78
2018-08-25T12:24:10.886Z,98578.09
2018-08-25T12:26:39.115Z,98576.30
2018-08-25T12:29:07.698Z,98569.64
2018-08-25T12:31:36.054Z,98572.64
2018-08-25T12:34:04.370Z,98572.50
2018-08-25T12:36:32.678Z,98572.87
2018-08-25T12:39:01.072Z,98576.85
2018-08-25T12:41:29.407Z,98573.20
2018-08-25T12:43:57.674Z,98582.03
2018-08-25T12:46:25.945Z,98575.72
2018-08-25T12:48:54.257Z,98581.52
2018-08-25T12:51:22.500Z,98585.87
2018-08-25T12:53:51.262Z,98582.84
2018-08-25T12:56:19.607Z,98583.21
2018-08-25T12:58:47.886Z,98583.69
2018-08-25T13:01:16.177Z,98591.04
2018-08-25T13:03:44.439Z,98589.23
2018-08-25T13:06:12.803Z,98591.37
2018-08-25T13:08:41.094Z,98590.05
2018-08-25T13:11:09.406Z,98587.91
2018-08-25T13:13:37.787Z,98601.53
2018-08-25T13:16:06.151Z,98601.05
2018-08-25T13:18:34.516Z,98609.98
2018-08-25T13:21:02.838Z,98614.48
2018-08-25T13:23:31.174Z,98614.97
2018-08-25T13:25:59.495Z,98627.78
2018-08-25T13:28:27.986Z,98633.09
2018-08-25T13:30:56.332Z,98645.54
2018-08-25T13:33:24.699Z,98649.52
2018-08-25T13:35:53.053Z,98637.56
2018-08-25T13:38:21.419Z,98650.00
2018-08-25T13:40:49.832Z,98648.67
2018-08-25T13:43:18.156Z,98649.67
2018-08-25T13:45:46.616Z,98648.34
2018-08-25T13:48:14.953Z,98644.34
2018-08-25T13:50:43.271Z,98645.68
2018-08-25T13:53:11.607Z,98650.14
2018-08-25T13:55:39.989Z,98646.64
2018-08-25T13:58:08.333Z,98649.67
2018-08-25T14:00:36.622Z,98649.67
2018-08-25T14:03:04.975Z,98647.48
2018-08-25T14:05:33.300Z,98643.50
2018-08-25T14:08:01.777Z,98650.00
2018-08-25T14:10:30.071Z,98647.86
2018-08-25T14:12:58.488Z,98651.33
2018-08-25T14:15:27.719Z,98646.86
2018-08-25T14:17:56.072Z,98657.98
2018-08-25T14:20:24.410Z,98658.35
2018-08-25T14:22:52.827Z,98659.81
2018-08-25T14:25:21.204Z,98654.98
2018-08-25T14:27:49.553Z,98661.15
2018-08-25T14:30:17.939Z,98660.78
2018-08-25T14:32:46.332Z,98652.80
2018-08-25T14:35:14.759Z,98667.42
2018-08-25T14:37:43.095Z,98673.73
2018-08-25T14:40:11.479Z,98672.27
2018-08-25T14:42:39.850Z,98669.74
2018-08-25T14:45:08.207Z,98670.08
2018-08-25T14:47:36.549Z,98668.75
2018-08-25T14:50:04.879Z,98667.42
2018-08-25T14:52:33.262Z,98662.95
2018-08-25T14:55:01.623Z,98661.63
2018-08-25T14:57:30.019Z,98664.28
2018-08-25T14:59:58.314Z,98661.15
2018-08-25T15:02:26.651Z,98662.81
2018-08-25T15:04:54.975Z,98661.34
2018-08-25T15:07:23.315Z,98666.80
2018-08-25T15:09:51.626Z,98667.51
2018-08-25T15:12:19.955Z,98665.81
2018-08-25T15:14:48.314Z,98669.32
2018-08-25T15:17:16.702Z,98672.83
2018-08-25T15:19:45.488Z,98681.66
2018-08-25T15:22:13.883Z,98693.72
2018-08-25T15:24:42.290Z,98692.39
2018-08-25T15:27:10.677Z,98700.88
2018-08-25T15:29:38.975Z,98707.02
2018-08-25T15:32:07.275Z,98704.50
2018-08-25T15:34:35.621Z,98709.81
2018-08-25T15:37:04.628Z,98714.31
2018-08-25T15:39:32.976Z,98715.64
2018-08-25T15:42:01.311Z,98718.08
2018-08-25T15:44:29.650Z,98726.90
2018-08-25T15:46:57.960Z,98722.06
2018-08-25T15:49:26.388Z,98728.70
2018-08-25T15:51:54.778Z,98730.52
2018-08-25T15:54:23.023Z,98724.86
2018-08-25T15:56:51.325Z,98724.01
2018-08-25T15:59:19.655Z,98730.66
2018-08-25T16:01:47.943Z,98726.33
2018-08-25T16:04:16.286Z,98725.47
2018-08-25T16:06:44.607Z,98728.51
2018-08-25T16:09:13.007Z,98734.78
2018-08-25T16:11:41.373Z,98732.59
2018-08-25T16:14:09.631Z,98738.91
2018-08-25T16:16:37.952Z,98740.58
2018-08-25T16:19:06.322Z,98741.56
2018-08-25T16:21:34.604Z,98747.36
2018-08-25T16:24:03.002Z,98744.36
2018-08-25T16:26:31.310Z,98748.83
2018-08-25T16:28:59.653Z,98755.33
2018-08-25T16:31:27.962Z,98752.00
2018-08-25T16:33:56.362Z,98756.80
2018-08-25T16:36:24.709Z,98754.99
2018-08-25T16:38:53.023Z,98754.14
2018-08-25T16:41:21.322Z,98759.83
2018-08-25T16:43:49.650Z,98755.98
2018-08-25T16:46:17.966Z,98759.97
2018-08-25T16:48:46.314Z,98753.80
2018-08-25T16:51:14.635Z,98753.44
2018-08-25T16:53:42.970Z,98751.28
2018-08-25T16:56:11.307Z,98762.88
2018-08-25T16:58:40.695Z,98758.89
2018-08-25T17:01:08.984Z,98761.34
2018-08-25T17:03:37.308Z,98756.03
2018-08-25T17:06:05.826Z,98756.98
2018-08-25T17:08:34.162Z,98756.98
2018-08-25T17:11:02.549Z,98765.47
2018-08-25T17:13:30.879Z,98761.63
2018-08-25T17:15:59.164Z,98767.75
2018-08-25T17:18:27.523Z,98770.92
2018-08-25T17:20:56.068Z,98768.27
2018-08-25T17:23:24.366Z,98771.40
2018-08-25T17:25:52.694Z,98771.88
2018-08-25T17:28:20.991Z,98770.20
2018-08-25T17:30:49.344Z,98774.20
2018-08-25T17:33:17.685Z,98779.98
2018-08-25T17:35:45.974Z,98776.98
2018-08-25T17:38:14.282Z,98782.78
2018-08-25T17:40:43.612Z,98780.98
2018-08-25T17:43:11.947Z,98788.09
2018-08-25T17:45:40.266Z,98796.07
2018-08-25T17:48:08.610Z,98795.22
2018-08-25T17:50:36.954Z,98797.16
2018-08-25T17:53:05.251Z,98802.98
2018-08-25T17:55:33.590Z,98807.45
2018-08-25T17:58:01.909Z,98808.44
2018-08-25T18:00:30.227Z,98811.91
2018-08-25T18:02:58.582Z,98811.47
2018-08-25T18:05:26.916Z,98819.55
2018-08-25T18:07:55.323Z,98827.17
2018-08-25T18:10:23.654Z,98827.66
2018-08-25T18:12:51.974Z,98825.47
2018-08-25T18:15:20.355Z,98832.25
2018-08-25T18:17:48.735Z,98835.90
2018-08-25T18:20:17.033Z,98835.05
2018-08-25T18:22:46.191Z,98836.98
2018-08-25T18:25:14.623Z,98840.36
2018-08-25T18:27:42.911Z,98841.31
2018-08-25T18:30:11.272Z,98845.67
2018-08-25T18:32:39.571Z,98846.15
2018-08-25T18:35:07.955Z,98849.80
2018-08-25T18:37:36.268Z,98854.26
2018-08-25T18:40:04.643Z,98857.36
2018-08-25T18:42:33.055Z,98860.16
2018-08-25T18:45:01.450Z,98859.33
2018-08-25T18:47:29.822Z,98871.16
2018-08-25T18:49:58.259Z,98871.77
2018-08-25T18:52:26.634Z,98874.05
2018-08-25T18:54:55.047Z,98879.87
2018-08-25T18:57:23.306Z,98879.02
2018-08-25T18:59:51.652Z,98896.63
2018-08-25T19:02:20.144Z,98890.50
2018-08-25T19:04:49.419Z,98895.94
2018-08-25T19:07:17.746Z,98893.77
2018-08-25T19:09:46.074Z,98896.55
2018-08-25T19:12:14.458Z,98897.03
2018-08-25T19:14:42.787Z,98900.54
2018-08-25T19:17:11.162Z,98898.83
2018-08-25T19:19:39.537Z,98894.98
2018-08-25T19:22:07.874Z,98906.12
2018-08-25T19:24:36.206Z,98904.89
2018-08-25T19:27:04.627Z,98907.45
2018-08-25T19:29:32.946Z,98902.74
2018-08-25T19:32:01.288Z,98914.19
2018-08-25T19:34:29.724Z,98910.34
2018-08-25T19:36:58.151Z,98917.96
2018-08-25T19:39:26.598Z,98925.08
2018-08-25T19:41:54.958Z,98924.26
2018-08-25T19:44:23.627Z,98927.52
2018-08-25T19:46:52.933Z,98923.88
2018-08-25T19:49:21.495Z,98930.52
2018-08-25T19:51:50.508Z,98933.17
2018-08-25T19:54:19.290Z,98928.72
2018-08-25T19:56:48.461Z,98932.33
2018-08-25T19:59:17.414Z,98935.83
2018-08-25T20:01:45.903Z,98935.83
2018-08-25T20:04:14.379Z,98938.15
2018-08-25T20:06:42.874Z,98935.12
2018-08-25T20:09:11.267Z,98939.09
2018-08-25T20:11:39.820Z,98945.61
2018-08-25T20:14:08.276Z,98944.92
2018-08-25T20:16:36.715Z,98949.37
2018-08-25T20:19:05.310Z,98955.67
2018-08-25T20:21:33.798Z,98954.34
2018-08-25T20:24:02.325Z,98962.66
2018-08-25T20:26:30.645Z,98958.81
2018-08-25T20:28:58.979Z,98968.58
2018-08-25T20:31:27.417Z,98963.27
2018-08-25T20:33:56.011Z,98966.40
2018-08-25T20:36:25.379Z,98972.56
2018-08-25T20:38:53.978Z,98965.58
2018-08-25T20:41:22.448Z,98969.19
2018-08-25T20:43:50.870Z,98971.84
2018-08-25T20:46:19.231Z,98979.81
2018-08-25T20:48:47.732Z,98979.47
2018-08-25T20:51:16.238Z,98983.10
2018-08-25T20:53:44.724Z,98984.91
2018-08-25T20:56:13.182Z,98977.20
2018-08-25T20:58:41.523Z,98982.52
2018-08-25T21:01:09.880Z,98983.33
2018-08-25T21:03:38.302Z,98990.48
2018-08-25T21:06:06.662Z,98984.66
2018-08-25T21:08:35.052Z,98989.63
2018-08-25T21:11:03.427Z,98998.06
2018-08-25T21:13:31.738Z,98991.91
2018-08-25T21:16:00.115Z,98992.89
2018-08-25T21:18:28.394Z,98995.54
2018-08-25T21:20:56.762Z,98993.36
2018-08-25T21:23:25.154Z,98987.23
2018-08-25T21:25:53.519Z,98989.03
2018-08-25T21:28:21.940Z,98989.51
2018-08-25T21:30:50.348Z,98997.00
2018-08-25T21:33:18.839Z,98987.84
2018-08-25T21:35:47.230Z,98992.77
2018-08-25T21:38:15.736Z,98996.88
2018-08-25T21:40:44.223Z,99000.86
2018-08-25T21:43:12.714Z,98994.36
2018-08-25T21:45:41.167Z,98996.66
2018-08-25T21:48:09.739Z,99001.97
2018-08-25T21:50:38.255Z,99008.23
2018-08-25T21:53:06.637Z,99000.05
2018-08-25T21:55:35.089Z,99000.91
2018-08-25T21:58:03.590Z,99008.02
2018-08-25T22:00:31.958Z,99005.84
2018-08-25T22:03:01.139Z,99003.31
2018-08-25T22:05:29.651Z,98998.00
2018-08-25T22:07:58.132Z,98995.82
2018-08-25T22:10:27.663Z,98999.45
2018-08-25T22:12:56.092Z,99003.09
2018-08-25T22:15:24.467Z,99000.91
2018-08-25T22:17:52.852Z,99006.70
2018-08-25T22:20:21.243Z,99009.48
2018-08-25T22:22:49.721Z,99018.77
2018-08-25T22:25:18.207Z,99007.94
2018-08-25T22:27:46.583Z,99012.39
2018-08-25T22:30:14.998Z,99008.88
2018-08-25T22:32:43.434Z,99006.83
2018-08-25T22:35:11.898Z,99005.03
2018-08-25T22:37:40.295Z,99007.34
2018-08-25T22:40:08.747Z,98998.52
2018-08-25T22:42:37.279Z,98999.98
2018-08-25T22:45:05.750Z,99000.92
2018-08-25T22:47:34.173Z,99009.02
2018-08-25T22:50:02.578Z,99010.84
2018-08-25T22:52:36.117Z,99013.13
2018-08-25T22:55:04.555Z,99010.84
2018-08-25T22:57:32.836Z,99014.58
2018-08-25T23:00:01.211Z,99017.36
2018-08-25T23:02:32.470Z,99012.18
2018-08-25T23:05:03.843Z,99017.48
2018-08-25T23:07:32.294Z,99015.78
2018-08-25T23:10:00.659Z,99013.62
2018-08-25T23:12:28.942Z,99016.28
2018-08-25T23:14:57.278Z,99009.14
2018-08-25T23:17:25.685Z,99009.74
2018-08-25T23:19:53.934Z,99016.85
2018-08-25T23:22:22.235Z,99017.70
2018-08-25T23:24:50.574Z,99015.17
2018-08-25T23:27:18.918Z,99019.98
2018-08-25T23:29:47.298Z,99023.62
2018-08-25T23:32:15.602Z,99020.95
2018-08-25T23:34:43.935Z,99026.61
2018-08-25T23:37:12.273Z,99028.07
2018-08-25T23:39:40.567Z,99032.05
2018-08-25T23:42:08.838Z,99037.01
2018-08-25T23:44:37.238Z,99025.29
2018-08-25T23:47:05.642Z,99029.27
2018-08-25T23:49:33.999Z,99030.12
2018-08-25T23:52:02.332Z,99031.45
2018-08-25T23:54:30.659Z,99032.90
2018-08-25T23:56:58.966Z,99031.58
2018-08-25T23:59:27.374Z,99034.70
